sensor_id;sensor_type;location;lat;lon;timestamp;P1;durP1;ratioP1;P2;durP2;ratioP2
13345;SDS011;6742;48.036;15.780;2022-09-01T00:01:09;5.77;;;5.30;;
13345;SDS011;6742;48.036;15.780;2022-09-01T00:03:39;5.97;;;5.37;;
13345;SDS011;6742;48.036;15.780;2022-09-01T00:06:07;6.13;;;5.63;;
13345;SDS011;6742;48.036;15.780;2022-09-01T00:08:35;6.03;;;5.50;;
13345;SDS011;6742;48.036;15.780;2022-09-01T00:11:02;6.07;;;5.47;;
13345;SDS011;6742;48.036;15.780;2022-09-01T00:13:30;5.97;;;5.47;;
13345;SDS011;6742;48.036;15.780;2022-09-01T00:15:59;6.27;;;5.70;;
13345;SDS011;6742;48.036;15.780;2022-09-01T00:18:28;6.60;;;5.43;;
13345;SDS011;6742;48.036;15.780;2022-09-01T00:20:56;7.30;;;5.63;;
13345;SDS011;6742;48.036;15.780;2022-09-01T00:23:23;5.47;;;5.07;;
13345;SDS011;6742;48.036;15.780;2022-09-01T00:25:51;5.97;;;5.47;;
13345;SDS011;6742;48.036;15.780;2022-09-01T00:28:18;6.40;;;5.80;;
13345;SDS011;6742;48.036;15.780;2022-09-01T00:30:45;6.53;;;5.93;;
13345;SDS011;6742;48.036;15.780;2022-09-01T00:33:13;5.83;;;5.33;;
13345;SDS011;6742;48.036;15.780;2022-09-01T00:35:40;5.60;;;5.20;;
13345;SDS011;6742;48.036;15.780;2022-09-01T00:38:07;12.10;;;5.40;;
13345;SDS011;6742;48.036;15.780;2022-09-01T00:40:34;5.83;;;5.20;;
13345;SDS011;6742;48.036;15.780;2022-09-01T00:43:09;6.20;;;5.70;;
13345;SDS011;6742;48.036;15.780;2022-09-01T00:45:38;5.43;;;4.93;;
13345;SDS011;6742;48.036;15.780;2022-09-01T00:48:06;6.00;;;5.50;;
13345;SDS011;6742;48.036;15.780;2022-09-01T00:50:35;5.97;;;5.47;;
13345;SDS011;6742;48.036;15.780;2022-09-01T00:53:03;6.00;;;5.60;;
13345;SDS011;6742;48.036;15.780;2022-09-01T00:55:32;6.63;;;6.03;;
13345;SDS011;6742;48.036;15.780;2022-09-01T00:58:02;6.33;;;5.77;;
13345;SDS011;6742;48.036;15.780;2022-09-01T01:00:32;7.87;;;7.27;;
13345;SDS011;6742;48.036;15.780;2022-09-01T01:03:05;6.97;;;6.37;;
13345;SDS011;6742;48.036;15.780;2022-09-01T01:05:35;7.90;;;7.20;;
13345;SDS011;6742;48.036;15.780;2022-09-01T01:08:04;7.07;;;6.47;;
13345;SDS011;6742;48.036;15.780;2022-09-01T01:10:33;8.00;;;7.10;;
13345;SDS011;6742;48.036;15.780;2022-09-01T01:13:05;7.60;;;7.00;;
13345;SDS011;6742;48.036;15.780;2022-09-01T01:15:34;8.00;;;7.30;;
13345;SDS011;6742;48.036;15.780;2022-09-01T01:18:02;7.47;;;6.87;;
13345;SDS011;6742;48.036;15.780;2022-09-01T01:20:30;7.00;;;6.47;;
13345;SDS011;6742;48.036;15.780;2022-09-01T01:23:15;7.63;;;7.03;;
13345;SDS011;6742;48.036;15.780;2022-09-01T01:25:51;9.07;;;7.17;;
13345;SDS011;6742;48.036;15.780;2022-09-01T01:28:23;6.33;;;5.83;;
13345;SDS011;6742;48.036;15.780;2022-09-01T01:30:58;6.90;;;6.40;;
13345;SDS011;6742;48.036;15.780;2022-09-01T01:33:27;8.13;;;7.50;;
13345;SDS011;6742;48.036;15.780;2022-09-01T01:35:56;8.20;;;7.50;;
13345;SDS011;6742;48.036;15.780;2022-09-01T01:38:24;9.83;;;7.43;;
13345;SDS011;6742;48.036;15.780;2022-09-01T01:40:53;7.67;;;7.03;;
13345;SDS011;6742;48.036;15.780;2022-09-01T01:43:20;8.17;;;7.40;;
13345;SDS011;6742;48.036;15.780;2022-09-01T01:45:55;9.27;;;8.47;;
13345;SDS011;6742;48.036;15.780;2022-09-01T01:48:26;8.80;;;8.03;;
13345;SDS011;6742;48.036;15.780;2022-09-01T01:50:59;8.93;;;8.20;;
13345;SDS011;6742;48.036;15.780;2022-09-01T01:53:26;10.20;;;9.40;;
13345;SDS011;6742;48.036;15.780;2022-09-01T01:55:55;9.77;;;8.87;;
13345;SDS011;6742;48.036;15.780;2022-09-01T01:58:24;8.53;;;7.93;;
13345;SDS011;6742;48.036;15.780;2022-09-01T02:00:53;9.63;;;8.93;;
13345;SDS011;6742;48.036;15.780;2022-09-01T02:03:22;10.47;;;9.57;;
13345;SDS011;6742;48.036;15.780;2022-09-01T02:05:53;9.40;;;8.70;;
13345;SDS011;6742;48.036;15.780;2022-09-01T02:08:21;9.60;;;8.80;;
13345;SDS011;6742;48.036;15.780;2022-09-01T02:10:50;10.93;;;8.53;;
13345;SDS011;6742;48.036;15.780;2022-09-01T02:13:23;10.20;;;9.13;;
13345;SDS011;6742;48.036;15.780;2022-09-01T02:15:56;10.07;;;9.03;;
13345;SDS011;6742;48.036;15.780;2022-09-01T02:18:25;9.47;;;8.57;;
13345;SDS011;6742;48.036;15.780;2022-09-01T02:20:55;10.10;;;9.30;;
13345;SDS011;6742;48.036;15.780;2022-09-01T02:23:25;10.50;;;9.60;;
13345;SDS011;6742;48.036;15.780;2022-09-01T02:25:55;11.50;;;10.50;;
13345;SDS011;6742;48.036;15.780;2022-09-01T02:28:26;10.07;;;9.27;;
13345;SDS011;6742;48.036;15.780;2022-09-01T02:30:56;11.03;;;9.87;;
13345;SDS011;6742;48.036;15.780;2022-09-01T02:33:28;10.53;;;9.70;;
13345;SDS011;6742;48.036;15.780;2022-09-01T02:35:56;11.77;;;10.77;;
13345;SDS011;6742;48.036;15.780;2022-09-01T02:38:25;10.33;;;9.43;;
13345;SDS011;6742;48.036;15.780;2022-09-01T02:40:54;10.93;;;9.93;;
13345;SDS011;6742;48.036;15.780;2022-09-01T02:43:22;10.90;;;9.93;;
13345;SDS011;6742;48.036;15.780;2022-09-01T02:45:54;10.53;;;9.73;;
13345;SDS011;6742;48.036;15.780;2022-09-01T02:48:24;11.53;;;10.47;;
13345;SDS011;6742;48.036;15.780;2022-09-01T02:50:57;11.73;;;10.73;;
13345;SDS011;6742;48.036;15.780;2022-09-01T02:53:26;12.57;;;11.37;;
13345;SDS011;6742;48.036;15.780;2022-09-01T02:55:53;11.83;;;10.77;;
13345;SDS011;6742;48.036;15.780;2022-09-01T02:58:23;12.33;;;11.13;;
13345;SDS011;6742;48.036;15.780;2022-09-01T03:00:51;12.77;;;11.57;;
13345;SDS011;6742;48.036;15.780;2022-09-01T03:03:20;11.87;;;10.77;;
13345;SDS011;6742;48.036;15.780;2022-09-01T03:05:49;13.60;;;12.30;;
13345;SDS011;6742;48.036;15.780;2022-09-01T03:08:19;13.00;;;11.80;;
13345;SDS011;6742;48.036;15.780;2022-09-01T03:10:48;13.10;;;11.90;;
13345;SDS011;6742;48.036;15.780;2022-09-01T03:13:19;14.23;;;12.93;;
13345;SDS011;6742;48.036;15.780;2022-09-01T03:15:49;13.20;;;12.00;;
13345;SDS011;6742;48.036;15.780;2022-09-01T03:18:18;12.50;;;11.40;;
13345;SDS011;6742;48.036;15.780;2022-09-01T03:20:45;12.63;;;11.60;;
13345;SDS011;6742;48.036;15.780;2022-09-01T03:23:15;15.23;;;13.93;;
13345;SDS011;6742;48.036;15.780;2022-09-01T03:25:43;15.03;;;13.63;;
13345;SDS011;6742;48.036;15.780;2022-09-01T03:28:11;13.70;;;12.27;;
13345;SDS011;6742;48.036;15.780;2022-09-01T03:30:43;13.13;;;11.83;;
13345;SDS011;6742;48.036;15.780;2022-09-01T03:33:13;13.83;;;12.63;;
13345;SDS011;6742;48.036;15.780;2022-09-01T03:35:43;11.40;;;10.40;;
13345;SDS011;6742;48.036;15.780;2022-09-01T03:38:10;10.57;;;9.53;;
13345;SDS011;6742;48.036;15.780;2022-09-01T03:40:48;9.90;;;8.97;;
13345;SDS011;6742;48.036;15.780;2022-09-01T03:43:17;9.50;;;8.60;;
13345;SDS011;6742;48.036;15.780;2022-09-01T03:45:47;10.47;;;9.57;;
13345;SDS011;6742;48.036;15.780;2022-09-01T03:48:14;9.93;;;9.03;;
13345;SDS011;6742;48.036;15.780;2022-09-01T03:50:43;9.50;;;8.70;;
13345;SDS011;6742;48.036;15.780;2022-09-01T03:53:11;10.23;;;9.40;;
13345;SDS011;6742;48.036;15.780;2022-09-01T03:55:42;10.90;;;9.40;;
13345;SDS011;6742;48.036;15.780;2022-09-01T03:58:11;9.27;;;8.47;;
13345;SDS011;6742;48.036;15.780;2022-09-01T04:00:43;10.57;;;9.30;;
13345;SDS011;6742;48.036;15.780;2022-09-01T04:03:12;10.80;;;9.70;;
13345;SDS011;6742;48.036;15.780;2022-09-01T04:05:45;10.30;;;9.40;;
13345;SDS011;6742;48.036;15.780;2022-09-01T04:08:12;9.90;;;9.10;;
13345;SDS011;6742;48.036;15.780;2022-09-01T04:10:43;11.07;;;9.97;;
13345;SDS011;6742;48.036;15.780;2022-09-01T04:13:15;10.83;;;9.83;;
13345;SDS011;6742;48.036;15.780;2022-09-01T04:15:43;10.20;;;9.30;;
13345;SDS011;6742;48.036;15.780;2022-09-01T04:18:10;11.30;;;10.30;;
13345;SDS011;6742;48.036;15.780;2022-09-01T04:20:46;12.80;;;11.67;;
13345;SDS011;6742;48.036;15.780;2022-09-01T04:23:15;12.77;;;11.57;;
13345;SDS011;6742;48.036;15.780;2022-09-01T04:25:46;11.37;;;10.37;;
13345;SDS011;6742;48.036;15.780;2022-09-01T04:28:14;11.90;;;10.80;;
13345;SDS011;6742;48.036;15.780;2022-09-01T04:30:47;12.03;;;10.03;;
13345;SDS011;6742;48.036;15.780;2022-09-01T04:33:16;11.60;;;10.50;;
13345;SDS011;6742;48.036;15.780;2022-09-01T04:35:43;12.17;;;11.13;;
13345;SDS011;6742;48.036;15.780;2022-09-01T04:38:14;12.27;;;11.27;;
13345;SDS011;6742;48.036;15.780;2022-09-01T04:40:42;13.90;;;12.67;;
13345;SDS011;6742;48.036;15.780;2022-09-01T04:43:09;12.13;;;11.13;;
13345;SDS011;6742;48.036;15.780;2022-09-01T04:45:36;11.83;;;10.83;;
13345;SDS011;6742;48.036;15.780;2022-09-01T04:48:03;13.33;;;12.23;;
13345;SDS011;6742;48.036;15.780;2022-09-01T04:50:31;12.17;;;11.17;;
13345;SDS011;6742;48.036;15.780;2022-09-01T04:52:59;13.20;;;12.10;;
13345;SDS011;6742;48.036;15.780;2022-09-01T04:55:28;13.67;;;12.33;;
13345;SDS011;6742;48.036;15.780;2022-09-01T04:57:56;11.47;;;10.47;;
13345;SDS011;6742;48.036;15.780;2022-09-01T05:00:27;11.40;;;10.47;;
13345;SDS011;6742;48.036;15.780;2022-09-01T05:02:57;11.13;;;10.23;;
13345;SDS011;6742;48.036;15.780;2022-09-01T05:05:29;11.10;;;10.20;;
13345;SDS011;6742;48.036;15.780;2022-09-01T05:08:03;13.73;;;12.43;;
13345;SDS011;6742;48.036;15.780;2022-09-01T05:10:32;11.37;;;10.43;;
13345;SDS011;6742;48.036;15.780;2022-09-01T05:13:01;11.07;;;10.17;;
13345;SDS011;6742;48.036;15.780;2022-09-01T05:15:34;12.37;;;11.27;;
13345;SDS011;6742;48.036;15.780;2022-09-01T05:18:01;11.77;;;10.83;;
13345;SDS011;6742;48.036;15.780;2022-09-01T05:20:35;11.97;;;10.97;;
13345;SDS011;6742;48.036;15.780;2022-09-01T05:23:03;12.47;;;11.37;;
13345;SDS011;6742;48.036;15.780;2022-09-01T05:25:37;11.13;;;10.13;;
13345;SDS011;6742;48.036;15.780;2022-09-01T05:28:06;11.43;;;10.30;;
13345;SDS011;6742;48.036;15.780;2022-09-01T05:30:35;10.40;;;9.50;;
13345;SDS011;6742;48.036;15.780;2022-09-01T05:33:04;9.30;;;8.60;;
13345;SDS011;6742;48.036;15.780;2022-09-01T05:35:36;13.27;;;12.20;;
13345;SDS011;6742;48.036;15.780;2022-09-01T05:38:08;11.10;;;10.17;;
13345;SDS011;6742;48.036;15.780;2022-09-01T05:40:39;10.87;;;9.87;;
13345;SDS011;6742;48.036;15.780;2022-09-01T05:43:08;13.37;;;12.17;;
13345;SDS011;6742;48.036;15.780;2022-09-01T05:45:38;10.40;;;9.50;;
13345;SDS011;6742;48.036;15.780;2022-09-01T05:48:08;9.93;;;9.13;;
13345;SDS011;6742;48.036;15.780;2022-09-01T05:50:38;10.17;;;9.30;;
13345;SDS011;6742;48.036;15.780;2022-09-01T05:53:07;10.53;;;9.50;;
13345;SDS011;6742;48.036;15.780;2022-09-01T05:55:41;9.63;;;8.90;;
13345;SDS011;6742;48.036;15.780;2022-09-01T05:58:12;9.43;;;8.67;;
13345;SDS011;6742;48.036;15.780;2022-09-01T06:00:41;11.80;;;10.77;;
13345;SDS011;6742;48.036;15.780;2022-09-01T06:03:11;13.03;;;12.03;;
13345;SDS011;6742;48.036;15.780;2022-09-01T06:05:41;10.10;;;9.30;;
13345;SDS011;6742;48.036;15.780;2022-09-01T06:08:09;10.93;;;10.03;;
13345;SDS011;6742;48.036;15.780;2022-09-01T06:10:38;8.87;;;8.17;;
13345;SDS011;6742;48.036;15.780;2022-09-01T06:13:10;9.67;;;8.77;;
13345;SDS011;6742;48.036;15.780;2022-09-01T06:15:40;9.07;;;8.27;;
13345;SDS011;6742;48.036;15.780;2022-09-01T06:18:09;8.47;;;7.77;;
13345;SDS011;6742;48.036;15.780;2022-09-01T06:20:37;7.27;;;6.67;;
13345;SDS011;6742;48.036;15.780;2022-09-01T06:23:05;7.93;;;7.13;;
13345;SDS011;6742;48.036;15.780;2022-09-01T06:25:35;8.17;;;7.37;;
13345;SDS011;6742;48.036;15.780;2022-09-01T06:28:03;10.60;;;9.27;;
13345;SDS011;6742;48.036;15.780;2022-09-01T06:30:33;8.10;;;7.50;;
13345;SDS011;6742;48.036;15.780;2022-09-01T06:33:02;8.10;;;7.40;;
13345;SDS011;6742;48.036;15.780;2022-09-01T06:35:33;9.43;;;8.63;;
13345;SDS011;6742;48.036;15.780;2022-09-01T06:38:01;8.63;;;7.67;;
13345;SDS011;6742;48.036;15.780;2022-09-01T06:40:28;8.37;;;7.77;;
13345;SDS011;6742;48.036;15.780;2022-09-01T06:42:56;9.10;;;8.30;;
13345;SDS011;6742;48.036;15.780;2022-09-01T06:45:24;8.17;;;7.57;;
13345;SDS011;6742;48.036;15.780;2022-09-01T06:47:52;7.87;;;7.20;;
13345;SDS011;6742;48.036;15.780;2022-09-01T06:50:21;9.77;;;9.00;;
13345;SDS011;6742;48.036;15.780;2022-09-01T06:52:48;9.47;;;8.50;;
13345;SDS011;6742;48.036;15.780;2022-09-01T06:55:25;8.57;;;7.43;;
13345;SDS011;6742;48.036;15.780;2022-09-01T06:57:55;7.97;;;7.27;;
13345;SDS011;6742;48.036;15.780;2022-09-01T07:00:23;8.17;;;7.47;;
13345;SDS011;6742;48.036;15.780;2022-09-01T07:02:54;8.20;;;7.50;;
13345;SDS011;6742;48.036;15.780;2022-09-01T07:05:24;9.13;;;8.33;;
13345;SDS011;6742;48.036;15.780;2022-09-01T07:07:51;10.30;;;9.30;;
13345;SDS011;6742;48.036;15.780;2022-09-01T07:10:20;7.77;;;7.07;;
13345;SDS011;6742;48.036;15.780;2022-09-01T07:12:48;9.53;;;8.73;;
13345;SDS011;6742;48.036;15.780;2022-09-01T07:15:15;9.53;;;8.63;;
13345;SDS011;6742;48.036;15.780;2022-09-01T07:17:47;9.20;;;8.30;;
13345;SDS011;6742;48.036;15.780;2022-09-01T07:20:18;8.20;;;7.00;;
13345;SDS011;6742;48.036;15.780;2022-09-01T07:22:47;8.33;;;7.50;;
13345;SDS011;6742;48.036;15.780;2022-09-01T07:25:15;6.87;;;6.27;;
13345;SDS011;6742;48.036;15.780;2022-09-01T07:27:45;6.10;;;5.50;;
13345;SDS011;6742;48.036;15.780;2022-09-01T07:30:14;6.37;;;5.77;;
13345;SDS011;6742;48.036;15.780;2022-09-01T07:32:42;5.83;;;5.30;;
13345;SDS011;6742;48.036;15.780;2022-09-01T07:35:09;5.57;;;4.40;;
13345;SDS011;6742;48.036;15.780;2022-09-01T07:37:38;4.93;;;4.43;;
13345;SDS011;6742;48.036;15.780;2022-09-01T07:40:07;6.90;;;4.50;;
13345;SDS011;6742;48.036;15.780;2022-09-01T07:42:36;4.50;;;4.10;;
13345;SDS011;6742;48.036;15.780;2022-09-01T07:45:05;4.57;;;4.07;;
13345;SDS011;6742;48.036;15.780;2022-09-01T07:47:34;4.90;;;4.50;;
13345;SDS011;6742;48.036;15.780;2022-09-01T07:50:04;4.73;;;4.17;;
13345;SDS011;6742;48.036;15.780;2022-09-01T07:52:33;4.10;;;3.80;;
13345;SDS011;6742;48.036;15.780;2022-09-01T07:55:09;4.53;;;4.10;;
13345;SDS011;6742;48.036;15.780;2022-09-01T07:57:36;3.67;;;3.37;;
13345;SDS011;6742;48.036;15.780;2022-09-01T08:00:07;5.13;;;4.27;;
13345;SDS011;6742;48.036;15.780;2022-09-01T08:02:35;4.57;;;4.03;;
13345;SDS011;6742;48.036;15.780;2022-09-01T08:05:04;4.57;;;3.80;;
13345;SDS011;6742;48.036;15.780;2022-09-01T08:07:34;4.17;;;3.77;;
13345;SDS011;6742;48.036;15.780;2022-09-01T08:10:01;4.90;;;4.07;;
13345;SDS011;6742;48.036;15.780;2022-09-01T08:12:30;3.70;;;3.40;;
13345;SDS011;6742;48.036;15.780;2022-09-01T08:14:57;3.70;;;3.40;;
13345;SDS011;6742;48.036;15.780;2022-09-01T08:17:24;3.50;;;3.20;;
13345;SDS011;6742;48.036;15.780;2022-09-01T08:19:51;5.77;;;3.87;;
13345;SDS011;6742;48.036;15.780;2022-09-01T08:22:18;4.10;;;3.53;;
13345;SDS011;6742;48.036;15.780;2022-09-01T08:24:47;3.87;;;3.57;;
13345;SDS011;6742;48.036;15.780;2022-09-01T08:27:14;3.43;;;3.13;;
13345;SDS011;6742;48.036;15.780;2022-09-01T08:29:43;3.40;;;3.10;;
13345;SDS011;6742;48.036;15.780;2022-09-01T08:32:10;3.40;;;3.00;;
13345;SDS011;6742;48.036;15.780;2022-09-01T08:34:37;4.00;;;3.00;;
13345;SDS011;6742;48.036;15.780;2022-09-01T08:37:04;4.23;;;3.00;;
13345;SDS011;6742;48.036;15.780;2022-09-01T08:39:31;3.10;;;2.80;;
13345;SDS011;6742;48.036;15.780;2022-09-01T08:42:01;3.10;;;2.67;;
13345;SDS011;6742;48.036;15.780;2022-09-01T08:44:35;3.33;;;3.03;;
13345;SDS011;6742;48.036;15.780;2022-09-01T08:47:11;3.27;;;2.97;;
13345;SDS011;6742;48.036;15.780;2022-09-01T08:49:42;3.27;;;2.67;;
13345;SDS011;6742;48.036;15.780;2022-09-01T08:52:13;3.27;;;2.57;;
13345;SDS011;6742;48.036;15.780;2022-09-01T08:54:50;3.93;;;3.00;;
13345;SDS011;6742;48.036;15.780;2022-09-01T08:57:22;2.90;;;2.70;;
13345;SDS011;6742;48.036;15.780;2022-09-01T08:59:51;4.00;;;3.10;;
13345;SDS011;6742;48.036;15.780;2022-09-01T09:02:29;2.87;;;2.43;;
13345;SDS011;6742;48.036;15.780;2022-09-01T09:05:05;3.47;;;2.80;;
13345;SDS011;6742;48.036;15.780;2022-09-01T09:07:44;3.20;;;2.90;;
13345;SDS011;6742;48.036;15.780;2022-09-01T09:10:28;3.60;;;3.00;;
13345;SDS011;6742;48.036;15.780;2022-09-01T09:13:03;4.17;;;2.63;;
13345;SDS011;6742;48.036;15.780;2022-09-01T09:15:38;6.60;;;3.70;;
13345;SDS011;6742;48.036;15.780;2022-09-01T09:18:12;3.50;;;3.20;;
13345;SDS011;6742;48.036;15.780;2022-09-01T09:20:48;3.33;;;3.00;;
13345;SDS011;6742;48.036;15.780;2022-09-01T09:23:20;3.40;;;3.10;;
13345;SDS011;6742;48.036;15.780;2022-09-01T09:25:53;3.37;;;2.73;;
13345;SDS011;6742;48.036;15.780;2022-09-01T09:28:21;3.67;;;3.30;;
13345;SDS011;6742;48.036;15.780;2022-09-01T09:30:49;3.87;;;3.30;;
13345;SDS011;6742;48.036;15.780;2022-09-01T09:36:14;6.03;;;3.27;;
13345;SDS011;6742;48.036;15.780;2022-09-01T09:38:44;4.70;;;3.13;;
13345;SDS011;6742;48.036;15.780;2022-09-01T09:41:14;4.57;;;2.90;;
13345;SDS011;6742;48.036;15.780;2022-09-01T09:43:42;3.63;;;3.07;;
13345;SDS011;6742;48.036;15.780;2022-09-01T09:46:19;3.63;;;2.63;;
13345;SDS011;6742;48.036;15.780;2022-09-01T09:49:12;3.57;;;3.07;;
13345;SDS011;6742;48.036;15.780;2022-09-01T09:51:45;4.00;;;2.40;;
13345;SDS011;6742;48.036;15.780;2022-09-01T09:54:17;2.53;;;2.33;;
13345;SDS011;6742;48.036;15.780;2022-09-01T09:56:47;3.00;;;2.70;;
13345;SDS011;6742;48.036;15.780;2022-09-01T09:59:29;4.10;;;2.77;;
13345;SDS011;6742;48.036;15.780;2022-09-01T10:01:57;4.30;;;2.80;;
13345;SDS011;6742;48.036;15.780;2022-09-01T10:04:33;3.67;;;2.67;;
13345;SDS011;6742;48.036;15.780;2022-09-01T10:07:15;5.77;;;2.23;;
13345;SDS011;6742;48.036;15.780;2022-09-01T10:09:49;2.30;;;2.10;;
13345;SDS011;6742;48.036;15.780;2022-09-01T10:12:17;3.37;;;2.10;;
13345;SDS011;6742;48.036;15.780;2022-09-01T10:14:46;2.83;;;1.77;;
13345;SDS011;6742;48.036;15.780;2022-09-01T10:17:18;1.90;;;1.80;;
13345;SDS011;6742;48.036;15.780;2022-09-01T10:19:52;2.50;;;2.17;;
13345;SDS011;6742;48.036;15.780;2022-09-01T10:22:21;3.50;;;2.13;;
13345;SDS011;6742;48.036;15.780;2022-09-01T10:24:49;3.30;;;2.50;;
13345;SDS011;6742;48.036;15.780;2022-09-01T10:27:18;2.57;;;2.10;;
13345;SDS011;6742;48.036;15.780;2022-09-01T10:29:47;4.60;;;2.20;;
13345;SDS011;6742;48.036;15.780;2022-09-01T10:32:21;3.23;;;2.13;;
13345;SDS011;6742;48.036;15.780;2022-09-01T10:34:55;2.13;;;1.80;;
13345;SDS011;6742;48.036;15.780;2022-09-01T10:37:23;2.20;;;2.00;;
13345;SDS011;6742;48.036;15.780;2022-09-01T10:40:11;3.53;;;2.10;;
13345;SDS011;6742;48.036;15.780;2022-09-01T10:42:40;3.63;;;2.30;;
13345;SDS011;6742;48.036;15.780;2022-09-01T10:45:16;2.40;;;2.20;;
13345;SDS011;6742;48.036;15.780;2022-09-01T10:47:46;3.53;;;2.70;;
13345;SDS011;6742;48.036;15.780;2022-09-01T10:50:26;4.13;;;2.23;;
13345;SDS011;6742;48.036;15.780;2022-09-01T10:53:00;3.17;;;2.40;;
13345;SDS011;6742;48.036;15.780;2022-09-01T10:55:42;3.40;;;2.30;;
13345;SDS011;6742;48.036;15.780;2022-09-01T10:58:24;3.03;;;2.63;;
13345;SDS011;6742;48.036;15.780;2022-09-01T11:01:08;3.23;;;2.73;;
13345;SDS011;6742;48.036;15.780;2022-09-01T11:03:48;2.97;;;2.67;;
13345;SDS011;6742;48.036;15.780;2022-09-01T11:09:20;3.03;;;2.20;;
13345;SDS011;6742;48.036;15.780;2022-09-01T11:11:56;4.00;;;2.50;;
13345;SDS011;6742;48.036;15.780;2022-09-01T11:14:45;2.80;;;1.90;;
13345;SDS011;6742;48.036;15.780;2022-09-01T11:17:15;3.27;;;2.13;;
13345;SDS011;6742;48.036;15.780;2022-09-01T11:19:45;3.50;;;2.53;;
13345;SDS011;6742;48.036;15.780;2022-09-01T11:22:28;3.43;;;2.23;;
13345;SDS011;6742;48.036;15.780;2022-09-01T11:25:09;4.83;;;2.10;;
13345;SDS011;6742;48.036;15.780;2022-09-01T11:31:13;2.63;;;2.43;;
13345;SDS011;6742;48.036;15.780;2022-09-01T11:34:00;6.97;;;2.70;;
13345;SDS011;6742;48.036;15.780;2022-09-01T11:36:35;2.73;;;2.40;;
13345;SDS011;6742;48.036;15.780;2022-09-01T11:39:06;4.03;;;2.17;;
13345;SDS011;6742;48.036;15.780;2022-09-01T11:41:45;4.40;;;2.40;;
13345;SDS011;6742;48.036;15.780;2022-09-01T11:44:19;2.57;;;2.10;;
13345;SDS011;6742;48.036;15.780;2022-09-01T11:46:49;2.67;;;2.17;;
13345;SDS011;6742;48.036;15.780;2022-09-01T11:49:25;6.47;;;2.57;;
13345;SDS011;6742;48.036;15.780;2022-09-01T11:51:55;2.67;;;1.80;;
13345;SDS011;6742;48.036;15.780;2022-09-01T11:54:25;2.10;;;1.90;;
13345;SDS011;6742;48.036;15.780;2022-09-01T11:56:53;3.37;;;2.00;;
13345;SDS011;6742;48.036;15.780;2022-09-01T11:59:33;2.83;;;1.83;;
13345;SDS011;6742;48.036;15.780;2022-09-01T12:02:02;3.23;;;2.00;;
13345;SDS011;6742;48.036;15.780;2022-09-01T12:04:30;2.33;;;1.90;;
13345;SDS011;6742;48.036;15.780;2022-09-01T12:07:00;1.97;;;1.70;;
13345;SDS011;6742;48.036;15.780;2022-09-01T12:09:32;3.07;;;1.67;;
13345;SDS011;6742;48.036;15.780;2022-09-01T12:12:01;1.70;;;1.40;;
13345;SDS011;6742;48.036;15.780;2022-09-01T12:14:29;4.43;;;2.17;;
13345;SDS011;6742;48.036;15.780;2022-09-01T12:16:58;2.60;;;1.43;;
13345;SDS011;6742;48.036;15.780;2022-09-01T12:19:27;1.77;;;1.33;;
13345;SDS011;6742;48.036;15.780;2022-09-01T12:21:57;1.60;;;1.10;;
13345;SDS011;6742;48.036;15.780;2022-09-01T12:24:26;2.03;;;1.20;;
13345;SDS011;6742;48.036;15.780;2022-09-01T12:26:58;5.10;;;1.47;;
13345;SDS011;6742;48.036;15.780;2022-09-01T12:29:26;1.90;;;1.40;;
13345;SDS011;6742;48.036;15.780;2022-09-01T12:31:54;2.03;;;1.27;;
13345;SDS011;6742;48.036;15.780;2022-09-01T12:34:22;1.70;;;1.50;;
13345;SDS011;6742;48.036;15.780;2022-09-01T12:37:01;1.57;;;1.37;;
13345;SDS011;6742;48.036;15.780;2022-09-01T12:39:33;1.40;;;1.30;;
13345;SDS011;6742;48.036;15.780;2022-09-01T12:42:22;2.03;;;1.27;;
13345;SDS011;6742;48.036;15.780;2022-09-01T12:44:52;2.63;;;1.20;;
13345;SDS011;6742;48.036;15.780;2022-09-01T12:50:34;2.67;;;1.50;;
13345;SDS011;6742;48.036;15.780;2022-09-01T12:53:14;1.67;;;1.33;;
13345;SDS011;6742;48.036;15.780;2022-09-01T12:55:59;1.43;;;1.20;;
13345;SDS011;6742;48.036;15.780;2022-09-01T12:58:47;1.53;;;1.17;;
13345;SDS011;6742;48.036;15.780;2022-09-01T13:01:28;1.73;;;1.23;;
13345;SDS011;6742;48.036;15.780;2022-09-01T13:07:00;3.43;;;1.67;;
13345;SDS011;6742;48.036;15.780;2022-09-01T13:09:29;2.50;;;2.00;;
13345;SDS011;6742;48.036;15.780;2022-09-01T13:12:08;1.87;;;1.50;;
13345;SDS011;6742;48.036;15.780;2022-09-01T13:14:38;1.50;;;1.40;;
13345;SDS011;6742;48.036;15.780;2022-09-01T13:17:06;2.10;;;1.40;;
13345;SDS011;6742;48.036;15.780;2022-09-01T13:19:33;4.03;;;1.33;;
13345;SDS011;6742;48.036;15.780;2022-09-01T13:22:00;2.43;;;1.50;;
13345;SDS011;6742;48.036;15.780;2022-09-01T13:24:27;1.10;;;1.00;;
13345;SDS011;6742;48.036;15.780;2022-09-01T13:26:54;2.73;;;1.50;;
13345;SDS011;6742;48.036;15.780;2022-09-01T13:29:21;1.90;;;1.47;;
13345;SDS011;6742;48.036;15.780;2022-09-01T13:31:50;4.07;;;1.40;;
13345;SDS011;6742;48.036;15.780;2022-09-01T13:34:18;1.33;;;1.23;;
13345;SDS011;6742;48.036;15.780;2022-09-01T13:36:45;1.67;;;1.30;;
13345;SDS011;6742;48.036;15.780;2022-09-01T13:39:12;3.10;;;1.40;;
13345;SDS011;6742;48.036;15.780;2022-09-01T13:41:39;3.93;;;1.40;;
13345;SDS011;6742;48.036;15.780;2022-09-01T13:44:06;1.63;;;1.20;;
13345;SDS011;6742;48.036;15.780;2022-09-01T13:46:35;2.67;;;1.53;;
13345;SDS011;6742;48.036;15.780;2022-09-01T13:49:04;3.33;;;1.63;;
13345;SDS011;6742;48.036;15.780;2022-09-01T13:51:31;1.43;;;1.27;;
13345;SDS011;6742;48.036;15.780;2022-09-01T13:53:59;2.07;;;1.40;;
13345;SDS011;6742;48.036;15.780;2022-09-01T13:56:26;1.57;;;1.40;;
13345;SDS011;6742;48.036;15.780;2022-09-01T13:58:53;2.57;;;1.30;;
13345;SDS011;6742;48.036;15.780;2022-09-01T14:01:20;3.50;;;1.47;;
13345;SDS011;6742;48.036;15.780;2022-09-01T14:03:47;2.23;;;1.20;;
13345;SDS011;6742;48.036;15.780;2022-09-01T14:06:15;1.23;;;1.03;;
13345;SDS011;6742;48.036;15.780;2022-09-01T14:08:42;3.33;;;1.20;;
13345;SDS011;6742;48.036;15.780;2022-09-01T14:11:14;1.23;;;1.10;;
13345;SDS011;6742;48.036;15.780;2022-09-01T14:13:42;4.60;;;1.30;;
13345;SDS011;6742;48.036;15.780;2022-09-01T14:16:10;2.40;;;1.50;;
13345;SDS011;6742;48.036;15.780;2022-09-01T14:18:41;2.73;;;1.40;;
13345;SDS011;6742;48.036;15.780;2022-09-01T14:21:10;1.30;;;1.10;;
13345;SDS011;6742;48.036;15.780;2022-09-01T14:23:40;2.70;;;1.20;;
13345;SDS011;6742;48.036;15.780;2022-09-01T14:26:10;1.33;;;0.97;;
13345;SDS011;6742;48.036;15.780;2022-09-01T14:28:40;1.77;;;1.10;;
13345;SDS011;6742;48.036;15.780;2022-09-01T14:31:10;1.40;;;1.30;;
13345;SDS011;6742;48.036;15.780;2022-09-01T14:33:38;1.23;;;1.00;;
13345;SDS011;6742;48.036;15.780;2022-09-01T14:36:06;1.93;;;1.17;;
13345;SDS011;6742;48.036;15.780;2022-09-01T14:38:33;1.67;;;1.20;;
13345;SDS011;6742;48.036;15.780;2022-09-01T14:41:05;1.50;;;1.10;;
13345;SDS011;6742;48.036;15.780;2022-09-01T14:43:32;2.90;;;1.30;;
13345;SDS011;6742;48.036;15.780;2022-09-01T14:46:05;2.27;;;1.50;;
13345;SDS011;6742;48.036;15.780;2022-09-01T14:48:38;2.37;;;1.37;;
13345;SDS011;6742;48.036;15.780;2022-09-01T14:51:07;2.40;;;1.10;;
13345;SDS011;6742;48.036;15.780;2022-09-01T14:53:43;1.93;;;1.40;;
13345;SDS011;6742;48.036;15.780;2022-09-01T14:56:12;3.47;;;1.43;;
13345;SDS011;6742;48.036;15.780;2022-09-01T14:58:42;1.40;;;1.20;;
13345;SDS011;6742;48.036;15.780;2022-09-01T15:01:11;1.30;;;1.20;;
13345;SDS011;6742;48.036;15.780;2022-09-01T15:03:40;1.60;;;1.37;;
13345;SDS011;6742;48.036;15.780;2022-09-01T15:06:09;2.53;;;1.37;;
13345;SDS011;6742;48.036;15.780;2022-09-01T15:08:37;1.47;;;1.37;;
13345;SDS011;6742;48.036;15.780;2022-09-01T15:11:06;1.67;;;1.33;;
13345;SDS011;6742;48.036;15.780;2022-09-01T15:13:36;2.13;;;1.40;;
13345;SDS011;6742;48.036;15.780;2022-09-01T15:16:04;2.60;;;1.60;;
13345;SDS011;6742;48.036;15.780;2022-09-01T15:18:37;5.57;;;1.70;;